createdAt,value
2022-07-28T00:02:21.115Z,17.70
2022-07-28T00:06:25.717Z,17.70
2022-07-28T00:10:28.969Z,17.70
2022-07-28T00:15:05.703Z,17.70
2022-07-28T00:19:08.913Z,17.80
2022-07-28T00:23:45.881Z,17.80
2022-07-28T00:27:50.386Z,17.80
2022-07-28T00:32:27.197Z,17.90
2022-07-28T00:36:30.335Z,18.00
2022-07-28T00:40:51.135Z,18.00
2022-07-28T00:44:55.679Z,17.90
2022-07-28T00:48:58.893Z,17.90
2022-07-28T00:53:02.742Z,17.80
2022-07-28T00:57:07.985Z,17.80
2022-07-28T01:01:16.018Z,17.70
2022-07-28T01:05:51.401Z,17.60
2022-07-28T01:15:20.119Z,17.40
2022-07-28T01:19:50.339Z,17.40
2022-07-28T01:24:06.606Z,17.40
2022-07-28T01:28:26.005Z,17.30
2022-07-28T01:32:58.957Z,17.10
2022-07-28T01:37:08.611Z,17.10
2022-07-28T01:41:37.662Z,17.00
2022-07-28T01:46:12.732Z,17.00
2022-07-28T01:50:19.878Z,16.90
2022-07-28T01:54:25.053Z,16.90
2022-07-28T01:58:29.951Z,16.90
2022-07-28T02:02:35.509Z,16.90
2022-07-28T02:06:41.886Z,16.90
2022-07-28T02:11:05.683Z,16.90
2022-07-28T02:15:14.612Z,16.80
2022-07-28T02:19:20.940Z,16.80
2022-07-28T02:23:57.430Z,16.70
2022-07-28T02:28:04.727Z,16.60
2022-07-28T02:32:27.248Z,16.60
2022-07-28T02:36:34.098Z,16.60
2022-07-28T02:41:12.236Z,16.50
2022-07-28T02:45:17.966Z,16.40
2022-07-28T02:49:24.670Z,16.30
2022-07-28T02:53:29.728Z,16.20
2022-07-28T02:57:34.546Z,16.30
2022-07-28T03:01:38.398Z,16.30
2022-07-28T03:05:42.388Z,16.30
2022-07-28T03:09:48.626Z,16.40
2022-07-28T03:13:53.486Z,16.40
2022-07-28T03:17:56.625Z,16.40
2022-07-28T03:21:59.988Z,16.30
2022-07-28T03:26:06.964Z,16.20
2022-07-28T03:30:16.119Z,16.20
2022-07-28T03:34:19.394Z,16.10
2022-07-28T03:38:26.985Z,16.00
2022-07-28T03:42:31.916Z,16.00
2022-07-28T03:46:36.540Z,16.00
2022-07-28T03:50:39.832Z,16.00
2022-07-28T03:54:42.963Z,16.00
2022-07-28T03:58:46.184Z,16.00
2022-07-28T04:02:50.937Z,16.00
2022-07-28T04:06:54.198Z,15.90
2022-07-28T04:10:57.365Z,15.90
2022-07-28T04:15:00.614Z,15.90
2022-07-28T04:19:05.212Z,15.90
2022-07-28T04:23:08.408Z,15.90
2022-07-28T04:27:11.635Z,15.90
2022-07-28T04:31:15.096Z,15.90
2022-07-28T04:35:20.582Z,15.90
2022-07-28T04:39:24.949Z,16.00
2022-07-28T04:43:28.143Z,16.10
2022-07-28T04:47:31.355Z,16.30
2022-07-28T04:51:37.197Z,16.40
2022-07-28T04:55:40.533Z,16.50
2022-07-28T04:59:44.021Z,16.60
2022-07-28T05:03:51.417Z,16.80
2022-07-28T05:07:55.983Z,17.00
2022-07-28T05:11:59.333Z,17.20
2022-07-28T05:16:03.204Z,17.40
2022-07-28T05:20:08.625Z,17.50
2022-07-28T05:24:14.641Z,17.60
2022-07-28T05:28:18.163Z,17.70
2022-07-28T05:32:21.334Z,17.80
2022-07-28T05:36:24.566Z,18.00
2022-07-28T05:40:30.139Z,18.10
2022-07-28T05:44:37.981Z,18.30
2022-07-28T05:48:41.903Z,18.50
2022-07-28T05:52:45.591Z,18.70
2022-07-28T05:56:51.222Z,18.80
2022-07-28T06:00:54.549Z,18.90
2022-07-28T06:04:58.707Z,18.70
2022-07-28T06:09:01.990Z,18.80
2022-07-28T06:13:06.747Z,18.90
2022-07-28T06:17:09.950Z,19.10
2022-07-28T06:21:13.089Z,19.40
2022-07-28T06:25:17.437Z,19.60
2022-07-28T06:29:22.781Z,19.90
2022-07-28T06:33:26.083Z,20.00
2022-07-28T06:37:29.584Z,20.20
2022-07-28T06:41:32.908Z,20.60
2022-07-28T06:45:37.580Z,21.10
2022-07-28T06:49:40.787Z,21.70
2022-07-28T06:53:44.003Z,22.10
2022-07-28T06:57:49.308Z,22.60
2022-07-28T07:01:53.905Z,22.90
2022-07-28T07:05:57.682Z,23.10
2022-07-28T07:10:00.959Z,23.30
2022-07-28T07:14:04.649Z,23.50
2022-07-28T07:18:09.358Z,23.90
2022-07-28T07:22:14.825Z,24.50
2022-07-28T07:26:18.168Z,24.90
2022-07-28T07:30:21.604Z,24.90
2022-07-28T07:34:26.394Z,25.00
2022-07-28T07:38:29.572Z,25.30
2022-07-28T07:42:32.866Z,25.60
2022-07-28T07:46:37.290Z,26.00
2022-07-28T07:50:42.048Z,26.40
2022-07-28T07:54:45.539Z,26.90
2022-07-28T07:58:53.622Z,27.30
2022-07-28T08:03:00.409Z,27.90
2022-07-28T08:07:08.548Z,27.90
2022-07-28T08:11:12.505Z,28.40
2022-07-28T08:15:15.801Z,29.30
2022-07-28T08:19:21.679Z,29.60
2022-07-28T08:23:26.527Z,29.90
2022-07-28T08:27:29.689Z,30.40
2022-07-28T08:31:33.259Z,30.00
2022-07-28T08:35:38.893Z,30.00
2022-07-28T08:39:44.800Z,30.10
2022-07-28T08:43:51.152Z,30.00
2022-07-28T08:48:08.163Z,29.60
2022-07-28T08:52:13.805Z,30.00
2022-07-28T08:56:20.184Z,30.60
2022-07-28T09:00:23.968Z,30.90
2022-07-28T09:04:27.905Z,30.90
2022-07-28T09:08:31.069Z,31.00
2022-07-28T09:12:37.014Z,31.20
2022-07-28T09:16:42.680Z,31.70
2022-07-28T09:20:46.184Z,31.90
2022-07-28T09:24:49.395Z,32.40
2022-07-28T09:28:55.128Z,32.80
2022-07-28T09:33:41.828Z,33.40
2022-07-28T09:37:40.942Z,33.90
2022-07-28T09:41:55.263Z,33.30
2022-07-28T09:46:06.693Z,33.60
2022-07-28T09:50:21.146Z,33.20
2022-07-28T09:54:24.325Z,33.80
2022-07-28T09:58:27.940Z,33.50
2022-07-28T10:02:33.213Z,32.50
2022-07-28T10:06:40.706Z,32.30
2022-07-28T10:10:43.976Z,32.90
2022-07-28T10:14:47.856Z,33.80
2022-07-28T10:18:52.528Z,33.90
2022-07-28T10:23:02.789Z,34.20
2022-07-28T10:27:07.706Z,34.30
2022-07-28T10:31:12.481Z,34.10
2022-07-28T10:35:21.124Z,33.60
2022-07-28T10:39:26.503Z,33.60
2022-07-28T10:43:31.011Z,32.80
2022-07-28T10:47:36.553Z,33.30
2022-07-28T10:52:01.117Z,33.70
2022-07-28T10:56:12.488Z,33.80
2022-07-28T11:00:25.904Z,33.90
2022-07-28T11:04:55.863Z,33.80
2022-07-28T11:09:21.430Z,33.00
2022-07-28T11:13:28.903Z,33.00
2022-07-28T11:17:33.610Z,33.60
2022-07-28T11:21:39.849Z,34.60
2022-07-28T11:26:27.647Z,34.90
2022-07-28T11:30:55.849Z,35.30
2022-07-28T11:35:10.604Z,34.30
2022-07-28T11:39:23.438Z,33.80
2022-07-28T11:43:39.735Z,34.00
2022-07-28T11:47:43.682Z,33.00
2022-07-28T11:52:16.811Z,34.20
2022-07-28T11:56:25.530Z,35.50
2022-07-28T12:00:31.319Z,34.30
2022-07-28T12:04:35.705Z,34.40
2022-07-28T12:08:53.947Z,35.40
2022-07-28T12:12:59.758Z,35.30
2022-07-28T12:17:04.544Z,35.30
2022-07-28T12:21:08.338Z,34.60
2022-07-28T12:25:13.937Z,34.40
2022-07-28T12:29:17.368Z,34.50
2022-07-28T12:33:29.020Z,33.80
2022-07-28T12:37:32.969Z,33.00
2022-07-28T12:41:38.303Z,32.80
2022-07-28T12:45:47.975Z,32.40
2022-07-28T12:50:09.863Z,32.20
2022-07-28T12:54:14.743Z,32.30
2022-07-28T12:58:28.944Z,32.00
2022-07-28T13:02:37.686Z,31.60
2022-07-28T13:06:42.582Z,31.70
2022-07-28T13:10:56.686Z,32.20
2022-07-28T13:15:03.822Z,32.60
2022-07-28T13:19:08.301Z,33.40
2022-07-28T13:23:13.313Z,33.90
2022-07-28T13:27:16.550Z,33.70
2022-07-28T13:31:19.905Z,33.20
2022-07-28T13:35:23.102Z,33.00
2022-07-28T13:39:27.765Z,33.50
2022-07-28T13:43:35.835Z,33.80
2022-07-28T13:47:39.617Z,34.20
2022-07-28T13:51:42.834Z,34.10
2022-07-28T13:55:47.390Z,34.30
2022-07-28T13:59:50.591Z,34.10
2022-07-28T14:03:58.151Z,33.50
2022-07-28T14:08:01.469Z,33.30
2022-07-28T14:12:06.371Z,33.90
2022-07-28T14:16:14.128Z,33.90
2022-07-28T14:20:17.929Z,34.00
2022-07-28T14:24:22.123Z,34.90
2022-07-28T14:28:26.916Z,35.10
2022-07-28T14:32:30.161Z,34.50
2022-07-28T14:36:33.373Z,33.60
2022-07-28T14:40:39.515Z,33.20
2022-07-28T14:44:44.368Z,33.60
2022-07-28T14:48:47.615Z,34.10
2022-07-28T14:52:51.168Z,34.30
2022-07-28T14:56:54.466Z,33.70
2022-07-28T15:00:58.966Z,33.00
2022-07-28T15:05:02.103Z,33.00
2022-07-28T15:09:06.791Z,33.00
2022-07-28T15:13:09.898Z,32.70
2022-07-28T15:17:14.418Z,32.20
2022-07-28T15:21:17.705Z,31.60
2022-07-28T15:25:20.866Z,31.20
2022-07-28T15:29:24.830Z,31.00
2022-07-28T15:33:30.082Z,31.20
2022-07-28T15:37:35.507Z,31.20
2022-07-28T15:41:38.723Z,31.50
2022-07-28T15:45:42.386Z,31.70
2022-07-28T15:49:46.941Z,32.30
2022-07-28T15:53:56.183Z,32.70
2022-07-28T15:57:59.371Z,32.80
2022-07-28T16:02:02.893Z,33.30
2022-07-28T16:06:07.740Z,33.30
2022-07-28T16:10:11.096Z,33.30
2022-07-28T16:14:14.583Z,33.20
2022-07-28T16:18:17.959Z,33.00
2022-07-28T16:22:22.835Z,32.60
2022-07-28T16:26:26.257Z,32.10
2022-07-28T16:30:30.885Z,31.60
2022-07-28T16:34:34.500Z,31.10
2022-07-28T16:38:39.629Z,30.90
2022-07-28T16:42:43.181Z,30.90
2022-07-28T16:46:46.678Z,30.80
2022-07-28T16:50:50.023Z,30.60
2022-07-28T16:54:55.128Z,30.60
2022-07-28T16:59:00.516Z,30.80
2022-07-28T17:03:04.800Z,30.90
2022-07-28T17:07:08.843Z,31.10
2022-07-28T17:11:13.392Z,31.40
2022-07-28T17:15:20.018Z,31.50
2022-07-28T17:19:26.202Z,31.70
2022-07-28T17:23:36.539Z,31.40
2022-07-28T17:27:46.140Z,31.10
2022-07-28T17:31:51.859Z,31.00
2022-07-28T17:35:56.648Z,30.90
2022-07-28T17:40:01.088Z,30.90
2022-07-28T17:44:09.606Z,30.70
2022-07-28T17:48:13.064Z,30.60
2022-07-28T17:52:16.482Z,30.30
2022-07-28T17:56:19.735Z,30.10
2022-07-28T18:00:25.739Z,29.70
2022-07-28T18:04:28.912Z,29.00
2022-07-28T18:08:32.142Z,28.40
2022-07-28T18:12:35.380Z,27.90
2022-07-28T18:16:40.139Z,27.60
2022-07-28T18:20:44.232Z,27.30
2022-07-28T18:24:47.532Z,27.00
2022-07-28T18:28:50.885Z,26.80
2022-07-28T18:32:55.931Z,26.60
2022-07-28T18:37:00.331Z,26.40
2022-07-28T18:41:04.421Z,26.20
2022-07-28T18:45:08.998Z,26.00
2022-07-28T18:49:13.724Z,25.90
2022-07-28T18:53:16.918Z,25.70
2022-07-28T18:57:20.265Z,25.50
2022-07-28T19:01:24.176Z,25.40
2022-07-28T19:05:49.610Z,25.20
2022-07-28T19:09:53.321Z,25.10
2022-07-28T19:13:56.518Z,25.00
2022-07-28T19:18:09.952Z,24.90
2022-07-28T19:22:16.504Z,24.80
2022-07-28T19:26:19.688Z,24.70
2022-07-28T19:30:22.929Z,24.60
2022-07-28T19:34:37.017Z,24.50
2022-07-28T19:38:41.952Z,24.40
2022-07-28T19:42:45.475Z,24.30
2022-07-28T19:46:49.285Z,24.20
2022-07-28T19:50:52.814Z,24.10
2022-07-28T19:54:57.432Z,24.00
2022-07-28T19:59:01.189Z,24.00
2022-07-28T20:03:13.401Z,23.90
2022-07-28T20:07:27.739Z,23.90
2022-07-28T20:11:33.155Z,23.70
2022-07-28T20:15:36.504Z,23.60
2022-07-28T20:19:39.701Z,23.60
2022-07-28T20:23:42.959Z,23.60
2022-07-28T20:27:47.489Z,23.50
2022-07-28T20:31:50.700Z,23.40
2022-07-28T20:35:53.996Z,23.30
2022-07-28T20:39:57.881Z,23.20
2022-07-28T20:44:27.929Z,23.20
2022-07-28T20:48:25.583Z,23.10
2022-07-28T20:52:28.702Z,23.00
2022-07-28T20:56:31.922Z,23.00
2022-07-28T21:00:38.763Z,23.00
2022-07-28T21:04:41.869Z,23.00
2022-07-28T21:08:46.900Z,22.90
2022-07-28T21:12:50.559Z,22.80
2022-07-28T21:16:55.362Z,22.80
2022-07-28T21:20:58.607Z,22.80
2022-07-28T21:25:01.825Z,22.80
2022-07-28T21:33:22.598Z,22.80
2022-07-28T21:37:26.295Z,22.80
2022-07-28T21:41:36.950Z,22.80
2022-07-28T21:45:40.444Z,22.80
2022-07-28T21:49:45.106Z,22.80
2022-07-28T21:53:49.174Z,22.80
2022-07-28T21:57:52.311Z,22.80
2022-07-28T22:01:55.536Z,22.80
2022-07-28T22:06:00.130Z,22.70
2022-07-28T22:10:03.307Z,22.70
2022-07-28T22:14:06.934Z,22.70
2022-07-28T22:18:14.778Z,22.70
2022-07-28T22:22:21.126Z,22.60
2022-07-28T22:26:24.343Z,22.60
2022-07-28T22:30:27.470Z,22.60
2022-07-28T22:34:30.839Z,22.60
2022-07-28T22:38:35.295Z,22.60
2022-07-28T22:42:38.618Z,22.60
2022-07-28T22:46:42.507Z,22.50
2022-07-28T22:50:45.814Z,22.50
2022-07-28T22:54:50.314Z,22.50
2022-07-28T22:58:53.410Z,22.50
2022-07-28T23:02:56.559Z,22.40
2022-07-28T23:06:59.832Z,22.40
2022-07-28T23:11:06.045Z,22.40
2022-07-28T23:15:10.009Z,22.30
2022-07-28T23:19:13.204Z,22.30
2022-07-28T23:23:18.550Z,22.30
2022-07-28T23:27:23.460Z,22.20
2022-07-28T23:31:26.773Z,22.20
2022-07-28T23:35:29.983Z,22.20
2022-07-28T23:39:33.124Z,22.20
2022-07-28T23:43:37.642Z,22.20
2022-07-28T23:47:40.764Z,22.10
2022-07-28T23:51:48.420Z,22.20
2022-07-28T23:55:51.768Z,22.20
2022-07-28T23:59:56.772Z,22.20
